Terminal Aerodrome Forecast
Issued by NWS

Home | Current Version | Previous Version | Text Only | Print | Product List | Glossary On
Versions: 1 2 3 4 5 6 7 8 9 10 11 12 13 14 15 16 17 18 19 20 21 22 23 24 25 26 27
050
FTUS43 KILX 291734
TAFCMI
TAF
KCMI 291734Z 2918/3018 05008KT P6SM BKN025
     FM292100 07008KT P6SM SCT025 BKN250
     FM300700 07012KT P6SM OVC070
     FM301200 09014KT 4SM -RA OVC008
     FM301500 11014G24KT 2SM -RA BR VCTS OVC008CB=

USA.gov is the U.S. government's official web portal to all federal, state and local government web resources and services.